Time;durP1;ratioP1;P1;durP2;ratioP2;P2;SDS_P1;SDS_P2;PMS_P1;PMS_P2;Temp;Humidity;BMP_temperature;BMP_pressure;BME280_temperature;BME280_humidity;BME280_pressure;Samples;Min_cycle;Max_cycle;Signal;HPM_P1;HPM_P2
2022/09/15 00:01:02;;;;;;;2.97;2.67;;;;;;;17.55;100.00;97145.16;5110995;28;20286;-67
2022/09/15 00:03:29;;;;;;;2.77;2.43;;;;;;;17.52;100.00;97144.66;5108373;28;20717;-68
2022/09/15 00:05:56;;;;;;;4.00;2.80;;;;;;;17.49;100.00;97143.16;5112036;28;20255;-67
2022/09/15 00:08:24;;;;;;;3.20;2.90;;;;;;;17.47;100.00;97139.84;5112015;28;20577;-67
2022/09/15 00:10:55;;;;;;;3.00;2.70;;;;;;;17.45;100.00;97136.53;5110075;28;20727;-67
2022/09/15 00:13:22;;;;;;;6.30;3.20;;;;;;;17.41;100.00;97131.66;5108388;28;20299;-67
2022/09/15 00:15:49;;;;;;;3.33;2.77;;;;;;;17.40;100.00;97132.69;5111598;28;20257;-67
2022/09/15 00:18:16;;;;;;;3.33;3.03;;;;;;;17.35;100.00;97127.84;5111936;28;20261;-67
2022/09/15 00:20:44;;;;;;;3.93;3.17;;;;;;;17.30;100.00;97127.50;5111886;28;20257;-67
2022/09/15 00:23:12;;;;;;;3.73;3.20;;;;;;;17.25;100.00;97124.50;5095507;28;20644;-67
2022/09/15 00:25:44;;;;;;;4.20;3.07;;;;;;;17.19;100.00;97127.88;5110787;28;20628;-68
2022/09/15 00:28:12;;;;;;;3.53;3.23;;;;;;;17.17;100.00;97113.00;5111818;28;20222;-68
2022/09/15 00:30:43;;;;;;;5.23;3.43;;;;;;;17.18;100.00;97112.84;5104229;28;20221;-67
2022/09/15 00:33:09;;;;;;;7.83;3.43;;;;;;;17.24;100.00;97112.16;5103599;28;20284;-67
2022/09/15 00:35:38;;;;;;;3.73;3.27;;;;;;;17.27;100.00;97113.66;5109136;28;20262;-68
2022/09/15 00:38:04;;;;;;;3.40;3.10;;;;;;;17.30;100.00;97111.47;5111798;28;20228;-68
2022/09/15 00:40:31;;;;;;;4.60;3.30;;;;;;;17.35;100.00;97109.13;5111673;28;20277;-68
2022/09/15 00:42:59;;;;;;;5.97;3.80;;;;;;;17.37;100.00;97117.81;5108341;28;20265;-67
2022/09/15 00:45:26;;;;;;;3.70;3.37;;;;;;;17.40;100.00;97116.66;5110095;28;20591;-67
2022/09/15 00:47:53;;;;;;;3.50;3.20;;;;;;;17.40;100.00;97117.50;5111733;28;20267;-67
2022/09/15 00:50:21;;;;;;;3.43;3.13;;;;;;;17.41;100.00;97119.16;5111718;28;20532;-67
2022/09/15 00:52:50;;;;;;;5.30;3.00;;;;;;;17.41;100.00;97113.81;5108917;28;20254;-67
2022/09/15 00:55:22;;;;;;;4.27;3.23;;;;;;;17.44;100.00;97118.81;5109513;28;20261;-67
2022/09/15 00:57:53;;;;;;;4.00;3.20;;;;;;;17.43;100.00;97111.78;5111730;28;20287;-67
2022/09/15 01:00:24;;;;;;;3.50;3.03;;;;;;;17.48;100.00;97120.13;5111868;28;20226;-68
2022/09/15 01:02:52;;;;;;;3.37;3.07;;;;;;;17.52;100.00;97126.81;5104859;28;20481;-67
2022/09/15 01:05:21;;;;;;;4.77;3.20;;;;;;;17.56;100.00;97113.94;5114048;28;20246;-67
2022/09/15 01:08:03;;;;;;;3.87;2.97;;;;;;;17.62;100.00;97113.25;5115176;28;20279;-68
2022/09/15 01:10:32;;;;;;;6.33;3.20;;;;;;;17.64;100.00;97119.22;5113822;28;20222;-67
2022/09/15 01:13:00;;;;;;;3.33;3.00;;;;;;;17.58;100.00;97110.09;5111838;28;20226;-69
2022/09/15 01:15:36;;;;;;;4.20;3.23;;;;;;;17.47;100.00;97112.28;5115037;28;20287;-68
2022/09/15 01:18:14;;;;;;;5.93;2.80;;;;;;;17.31;100.00;97097.13;5114929;28;20635;-68
2022/09/15 01:21:05;;;;;;;4.43;2.80;;;;;;;17.11;100.00;97106.53;5104918;28;20234;-68
2022/09/15 01:24:16;;;;;;;4.00;2.30;;;;;;;17.02;100.00;97096.88;5099260;28;20576;-68
2022/09/15 01:26:56;;;;;;;2.40;2.17;;;;;;;17.01;100.00;97089.88;5068999;28;20598;-68
2022/09/15 01:29:48;;;;;;;2.20;2.00;;;;;;;17.04;100.00;97104.72;5092590;28;20226;-68
2022/09/15 01:35:18;;;;;;;3.10;2.23;;;;;;;17.12;100.00;97084.16;5113882;28;20350;-68
2022/09/15 01:37:50;;;;;;;2.80;2.30;;;;;;;17.11;100.00;97079.84;5114595;28;20271;-68
2022/09/15 01:40:21;;;;;;;3.90;2.17;;;;;;;17.12;100.00;97086.03;5112764;28;20225;-68
2022/09/15 01:42:50;;;;;;;3.67;1.93;;;;;;;17.10;100.00;97067.50;5111677;28;20226;-68
2022/09/15 01:45:24;;;;;;;3.50;2.10;;;;;;;17.21;100.00;97080.47;5107193;28;20330;-68
2022/09/15 01:47:54;;;;;;;2.07;1.83;;;;;;;17.26;100.00;97078.09;5114454;28;20582;-68
2022/09/15 01:50:24;;;;;;;3.80;2.20;;;;;;;17.32;100.00;97072.06;5111583;28;20238;-68
2022/09/15 01:52:55;;;;;;;3.13;1.93;;;;;;;17.43;100.00;97069.06;5112912;28;20273;-68
2022/09/15 01:55:26;;;;;;;2.23;2.03;;;;;;;17.48;100.00;97066.72;5112591;28;20275;-68
2022/09/15 01:57:53;;;;;;;2.27;1.83;;;;;;;17.59;100.00;97079.69;5114230;28;20265;-68
2022/09/15 02:00:21;;;;;;;3.40;1.90;;;;;;;17.57;100.00;97080.84;5110655;28;20579;-69
2022/09/15 02:02:56;;;;;;;2.10;1.97;;;;;;;17.52;100.00;97078.72;5112817;28;20653;-67
2022/09/15 02:05:29;;;;;;;2.23;1.80;;;;;;;17.51;100.00;97086.91;5114035;28;20284;-67
2022/09/15 02:08:04;;;;;;;3.33;2.23;;;;;;;17.42;100.00;97086.09;5113466;28;20232;-67
2022/09/15 02:10:38;;;;;;;2.63;1.80;;;;;;;17.31;100.00;97081.09;5110963;28;20304;-68
2022/09/15 02:13:15;;;;;;;3.47;2.00;;;;;;;17.19;100.00;97079.81;5113651;28;20573;-68
2022/09/15 02:15:50;;;;;;;2.00;1.77;;;;;;;17.16;100.00;97080.16;5113850;28;20233;-67
2022/09/15 02:18:24;;;;;;;4.43;1.70;;;;;;;17.12;100.00;97078.81;5105573;28;20314;-67
2022/09/15 02:20:56;;;;;;;2.53;2.07;;;;;;;17.09;100.00;97081.84;5089623;28;20221;-67
2022/09/15 02:23:27;;;;;;;2.30;2.00;;;;;;;17.07;100.00;97078.50;5113529;28;20244;-68
2022/09/15 02:25:59;;;;;;;2.00;1.80;;;;;;;17.11;100.00;97079.00;5111819;28;20322;-68
2022/09/15 02:28:30;;;;;;;2.33;2.13;;;;;;;17.15;100.00;97080.31;5110916;28;20227;-68
2022/09/15 02:30:59;;;;;;;2.33;2.03;;;;;;;17.18;100.00;97083.47;5113503;28;20230;-68
2022/09/15 02:33:32;;;;;;;1.80;1.70;;;;;;;17.24;100.00;97090.81;5113632;28;20254;-68
2022/09/15 02:36:00;;;;;;;2.00;1.80;;;;;;;17.26;100.00;97087.97;5110264;28;20576;-68
2022/09/15 02:38:29;;;;;;;2.03;1.80;;;;;;;17.27;100.00;97093.16;5111368;28;20347;-68
2022/09/15 02:40:56;;;;;;;2.30;1.97;;;;;;;17.33;100.00;97095.13;5113301;28;20636;-68
2022/09/15 02:43:23;;;;;;;2.47;1.93;;;;;;;17.37;100.00;97091.13;5113288;28;20624;-68
2022/09/15 02:45:50;;;;;;;2.27;2.03;;;;;;;17.43;100.00;97079.75;5109050;28;20273;-68
2022/09/15 02:48:18;;;;;;;4.13;1.90;;;;;;;17.43;100.00;97073.59;5110567;28;20226;-67
2022/09/15 02:50:44;;;;;;;2.47;1.80;;;;;;;17.50;100.00;97063.88;5113065;28;20703;-67
2022/09/15 02:53:11;;;;;;;2.13;1.93;;;;;;;17.47;100.00;97061.53;5113124;28;20315;-67
2022/09/15 02:55:38;;;;;;;3.90;1.90;;;;;;;17.46;100.00;97063.38;5111569;28;20635;-66
2022/09/15 02:58:05;;;;;;;1.70;1.60;;;;;;;17.54;100.00;97074.03;5109646;28;20223;-66
2022/09/15 03:00:32;;;;;;;2.87;2.00;;;;;;;17.56;100.00;97066.66;5102676;28;20222;-66
2022/09/15 03:02:58;;;;;;;2.43;1.57;;;;;;;17.53;100.00;97063.50;5112949;28;20261;-66
2022/09/15 03:05:29;;;;;;;2.13;1.50;;;;;;;17.54;100.00;97066.00;5112411;28;20281;-66
2022/09/15 03:07:56;;;;;;;2.10;1.57;;;;;;;17.51;100.00;97065.53;5109315;28;20278;-66
2022/09/15 03:10:24;;;;;;;2.77;1.80;;;;;;;17.47;100.00;97070.38;5097729;28;20248;-66
2022/09/15 03:12:53;;;;;;;2.03;1.70;;;;;;;17.49;100.00;97065.69;5103648;28;20593;-66
2022/09/15 03:15:21;;;;;;;2.13;1.67;;;;;;;17.48;100.00;97065.84;5112216;28;20265;-66
2022/09/15 03:17:48;;;;;;;2.33;1.70;;;;;;;17.41;100.00;97068.41;5109087;28;20255;-65
2022/09/15 03:20:18;;;;;;;1.90;1.60;;;;;;;17.35;100.00;97063.72;5112315;28;20273;-65
2022/09/15 03:22:46;;;;;;;2.87;1.67;;;;;;;17.31;100.00;97061.59;5104823;28;20619;-65
2022/09/15 03:25:13;;;;;;;1.73;1.50;;;;;;;17.28;100.00;97065.44;5108486;28;20245;-65
2022/09/15 03:27:40;;;;;;;1.60;1.43;;;;;;;17.25;100.00;97060.41;5108987;28;20223;-65
2022/09/15 03:30:08;;;;;;;2.30;1.53;;;;;;;17.23;100.00;97067.78;5111610;28;20298;-65
2022/09/15 03:32:35;;;;;;;1.93;1.60;;;;;;;17.22;100.00;97066.13;5112636;28;20576;-65
2022/09/15 03:35:02;;;;;;;1.10;1.00;;;;;;;17.21;100.00;97069.81;5112553;28;20230;-65
2022/09/15 03:37:28;;;;;;;1.33;1.23;;;;;;;17.21;100.00;97074.28;5107511;28;20272;-65
2022/09/15 03:39:56;;;;;;;2.07;1.53;;;;;;;17.19;100.00;97066.44;5110558;28;20249;-65
2022/09/15 03:42:23;;;;;;;4.10;1.50;;;;;;;17.17;100.00;97073.81;5112265;28;20222;-65
2022/09/15 03:44:50;;;;;;;2.53;1.40;;;;;;;17.14;100.00;97076.81;5112279;28;20285;-65
2022/09/15 03:47:16;;;;;;;3.67;1.60;;;;;;;17.07;100.00;97072.34;5109969;28;20628;-66
2022/09/15 03:49:43;;;;;;;1.00;1.00;;;;;;;17.11;100.00;97074.50;5109460;28;20651;-66
2022/09/15 03:52:11;;;;;;;1.60;1.30;;;;;;;17.07;100.00;97072.34;5112148;28;20285;-66
2022/09/15 03:54:37;;;;;;;2.23;1.37;;;;;;;17.09;100.00;97065.00;5112162;28;20222;-66
2022/09/15 03:57:06;;;;;;;4.60;1.40;;;;;;;17.07;100.00;97067.81;5110762;28;20689;-67
2022/09/15 03:59:33;;;;;;;1.60;1.37;;;;;;;17.07;100.00;97067.00;5108666;28;20226;-66
2022/09/15 04:02:00;;;;;;;2.20;1.13;;;;;;;17.04;100.00;97060.19;5111894;28;20264;-66
2022/09/15 04:04:27;;;;;;;2.10;1.57;;;;;;;17.09;100.00;97070.34;5110147;28;20279;-66
2022/09/15 04:06:53;;;;;;;1.37;1.20;;;;;;;17.18;100.00;97067.47;5111506;28;20283;-66
2022/09/15 04:09:20;;;;;;;1.70;1.27;;;;;;;17.24;100.00;97069.44;5108399;28;20528;-66
2022/09/15 04:11:47;;;;;;;3.13;1.40;;;;;;;17.28;100.00;97069.94;5111273;28;20300;-66
2022/09/15 04:14:15;;;;;;;1.40;1.20;;;;;;;17.30;100.00;97074.09;5111978;28;20600;-65
2022/09/15 04:16:41;;;;;;;3.70;1.50;;;;;;;17.31;100.00;97070.41;5111962;28;20262;-65
2022/09/15 04:19:08;;;;;;;1.90;1.30;;;;;;;17.37;100.00;97075.09;5108627;28;20266;-66
2022/09/15 04:21:35;;;;;;;2.20;1.43;;;;;;;17.45;100.00;97071.56;5110094;28;20266;-66
2022/09/15 04:24:03;;;;;;;2.50;1.53;;;;;;;17.53;100.00;97075.03;5104536;28;20248;-66
2022/09/15 04:26:32;;;;;;;1.60;1.20;;;;;;;17.59;100.00;97077.00;5111659;28;20320;-65
2022/09/15 04:28:59;;;;;;;2.00;1.40;;;;;;;17.60;100.00;97078.66;5109087;28;20343;-67
2022/09/15 04:31:27;;;;;;;2.20;1.30;;;;;;;17.56;100.00;97074.66;5107616;28;20628;-65
2022/09/15 04:33:56;;;;;;;1.87;1.40;;;;;;;17.49;100.00;97079.06;5111725;28;20303;-66
2022/09/15 04:36:24;;;;;;;3.00;1.43;;;;;;;17.52;100.00;97073.38;5115357;28;20278;-66
2022/09/15 04:38:52;;;;;;;1.50;1.40;;;;;;;17.48;100.00;97074.72;5113409;28;20446;-66
2022/09/15 04:41:19;;;;;;;3.07;1.50;;;;;;;17.45;100.00;97066.22;5113213;28;20680;-66
2022/09/15 04:43:46;;;;;;;1.67;1.33;;;;;;;17.48;100.00;97072.03;5115733;28;20226;-66
2022/09/15 04:46:14;;;;;;;1.40;1.30;;;;;;;17.42;100.00;97067.41;5115590;28;20277;-65
2022/09/15 04:48:42;;;;;;;3.87;1.70;;;;;;;17.35;100.00;97069.06;5114238;28;20257;-65
2022/09/15 04:51:12;;;;;;;2.70;1.50;;;;;;;17.32;100.00;97061.38;5112276;28;20222;-65
2022/09/15 04:53:39;;;;;;;1.60;1.50;;;;;;;17.33;100.00;97070.25;5115503;28;20619;-65
2022/09/15 04:56:08;;;;;;;1.77;1.30;;;;;;;17.22;100.00;97073.28;5113638;28;20287;-66
2022/09/15 04:58:38;;;;;;;2.03;1.60;;;;;;;17.18;100.00;97080.00;5114113;28;20265;-66
2022/09/15 05:01:11;;;;;;;2.40;1.67;;;;;;;17.13;100.00;97077.00;5112175;28;20266;-66
2022/09/15 05:03:38;;;;;;;3.13;1.90;;;;;;;17.08;100.00;97077.50;5115245;28;20226;-66
2022/09/15 05:06:09;;;;;;;2.30;1.53;;;;;;;17.08;100.00;97080.16;5115164;28;20356;-69
2022/09/15 05:08:36;;;;;;;3.67;1.70;;;;;;;17.09;100.00;97087.19;5113064;28;20679;-69
2022/09/15 05:11:05;;;;;;;3.10;1.67;;;;;;;17.11;100.00;97085.19;5112366;28;20261;-69
2022/09/15 05:13:32;;;;;;;3.30;1.70;;;;;;;17.16;100.00;97088.16;5115067;28;20230;-69
2022/09/15 05:16:04;;;;;;;1.90;1.70;;;;;;;17.20;100.00;97092.16;5115029;28;20672;-69
2022/09/15 05:18:31;;;;;;;3.10;1.53;;;;;;;17.27;100.00;97090.47;5112643;28;20974;-68
2022/09/15 05:20:59;;;;;;;4.60;1.80;;;;;;;17.22;100.00;97084.81;5112026;28;20612;-68
2022/09/15 05:23:27;;;;;;;3.07;2.00;;;;;;;17.22;100.00;97094.66;5109976;28;20256;-68
2022/09/15 05:25:55;;;;;;;2.40;1.77;;;;;;;17.24;100.00;97093.47;5114668;28;20241;-69
2022/09/15 05:28:23;;;;;;;3.40;1.83;;;;;;;17.27;100.00;97095.81;5113063;28;20248;-69
2022/09/15 05:30:50;;;;;;;2.27;1.60;;;;;;;17.27;100.00;97101.16;5111479;28;20347;-69
2022/09/15 05:33:17;;;;;;;2.50;1.23;;;;;;;17.33;100.00;97103.16;5114661;28;20309;-69
2022/09/15 05:35:50;;;;;;;1.93;1.43;;;;;;;17.34;100.00;97107.47;5114556;28;20620;-69
2022/09/15 05:38:17;;;;;;;1.60;1.47;;;;;;;17.36;100.00;97100.09;5112879;28;20225;-69
2022/09/15 05:40:45;;;;;;;1.40;1.30;;;;;;;17.37;100.00;97096.47;5111205;28;20223;-69
2022/09/15 05:43:12;;;;;;;2.27;1.57;;;;;;;17.39;100.00;97097.16;5114564;28;20230;-69
2022/09/15 05:45:41;;;;;;;2.37;1.47;;;;;;;17.39;100.00;97099.81;5114461;28;20338;-69
2022/09/15 05:48:08;;;;;;;1.87;1.50;;;;;;;17.39;100.00;97106.97;5110892;28;20234;-69
2022/09/15 05:50:35;;;;;;;1.60;1.50;;;;;;;17.41;100.00;97100.47;5110722;28;20223;-70
2022/09/15 05:53:02;;;;;;;1.70;1.60;;;;;;;17.44;100.00;97101.97;5091804;28;20338;-68
2022/09/15 05:55:28;;;;;;;1.70;1.60;;;;;;;17.46;100.00;97105.28;5114412;28;20222;-69
2022/09/15 05:57:56;;;;;;;1.73;1.40;;;;;;;17.47;100.00;97102.44;5114277;28;20575;-68
2022/09/15 06:00:23;;;;;;;3.17;1.60;;;;;;;17.51;100.00;97103.78;5110642;28;20276;-66
2022/09/15 06:02:51;;;;;;;2.07;1.80;;;;;;;17.49;100.00;97111.09;5113389;28;20232;-68
2022/09/15 06:05:17;;;;;;;2.17;1.70;;;;;;;17.43;100.00;97106.47;5114086;28;20253;-68
2022/09/15 06:07:44;;;;;;;2.33;1.70;;;;;;;17.41;100.00;97108.47;5114103;28;20311;-69
2022/09/15 06:10:11;;;;;;;3.73;1.93;;;;;;;17.41;100.00;97103.13;5111045;28;20306;-68
2022/09/15 06:12:38;;;;;;;2.83;1.80;;;;;;;17.42;100.00;97104.78;5112242;28;20226;-68
2022/09/15 06:15:06;;;;;;;2.03;1.53;;;;;;;17.43;100.00;97102.97;5112514;28;20286;-67
2022/09/15 06:17:33;;;;;;;1.67;1.53;;;;;;;17.38;100.00;97103.47;5114025;28;20307;-66
2022/09/15 06:20:00;;;;;;;2.30;1.70;;;;;;;17.40;100.00;97106.81;5111660;28;20247;-67
2022/09/15 06:22:28;;;;;;;2.60;1.70;;;;;;;17.39;100.00;97105.16;5111024;28;20557;-67
2022/09/15 06:24:54;;;;;;;1.77;1.50;;;;;;;17.32;100.00;97111.31;5113718;28;20287;-67
2022/09/15 06:27:21;;;;;;;3.53;1.90;;;;;;;17.35;100.00;97125.16;5113715;28;20310;-69
2022/09/15 06:29:48;;;;;;;4.27;2.07;;;;;;;17.32;100.00;97109.47;5112450;28;20623;-68
2022/09/15 06:32:16;;;;;;;4.73;2.10;;;;;;;17.24;100.00;97117.50;5109972;28;20258;-69
2022/09/15 06:34:43;;;;;;;4.23;2.17;;;;;;;17.23;100.00;97121.19;5091450;28;20236;-69
2022/09/15 06:37:10;;;;;;;2.70;2.20;;;;;;;17.20;100.00;97132.19;5113648;28;20278;-69
2022/09/15 06:39:36;;;;;;;2.53;1.80;;;;;;;17.14;100.00;97127.53;5107323;28;20876;-70
2022/09/15 06:42:03;;;;;;;4.57;2.17;;;;;;;17.14;100.00;97130.22;5096818;28;20223;-70
2022/09/15 06:44:30;;;;;;;3.93;1.90;;;;;;;17.18;100.00;97125.41;5107799;28;20282;-70
2022/09/15 06:46:57;;;;;;;1.77;1.50;;;;;;;17.19;100.00;97135.88;5112030;28;20330;-70
2022/09/15 06:49:25;;;;;;;4.23;1.83;;;;;;;17.17;100.00;97137.91;5112032;28;20662;-70
2022/09/15 06:51:52;;;;;;;4.87;2.10;;;;;;;17.17;100.00;97137.03;5108518;28;20549;-70
2022/09/15 06:54:18;;;;;;;2.53;1.80;;;;;;;17.12;100.00;97134.91;5110173;28;20225;-71
2022/09/15 06:56:46;;;;;;;2.50;2.00;;;;;;;17.15;100.00;97131.91;5111849;28;20254;-71
2022/09/15 06:59:13;;;;;;;2.63;1.93;;;;;;;17.20;100.00;97142.88;5110751;28;20236;-71
2022/09/15 07:01:40;;;;;;;3.97;2.23;;;;;;;17.22;100.00;97146.22;5109288;28;20275;-71
2022/09/15 07:04:08;;;;;;;4.70;2.47;;;;;;;17.20;100.00;97142.88;5108924;28;20697;-72
2022/09/15 07:06:38;;;;;;;4.13;1.93;;;;;;;17.19;100.00;97135.88;5109817;28;20276;-71
2022/09/15 07:09:05;;;;;;;4.17;1.90;;;;;;;17.11;100.00;97143.91;5111576;28;20256;-71
2022/09/15 07:11:33;;;;;;;2.50;1.70;;;;;;;17.10;100.00;97142.25;5109511;28;20233;-71
2022/09/15 07:13:59;;;;;;;2.63;1.70;;;;;;;17.12;100.00;97134.91;5108496;28;20222;-70
2022/09/15 07:16:26;;;;;;;2.60;1.70;;;;;;;17.17;100.00;97140.56;5111430;28;20548;-70
2022/09/15 07:18:55;;;;;;;3.43;2.00;;;;;;;17.21;100.00;97128.56;5111317;28;20225;-71
2022/09/15 07:21:22;;;;;;;2.30;1.40;;;;;;;17.28;100.00;97134.88;5109906;28;20237;-71
2022/09/15 07:23:51;;;;;;;2.03;1.33;;;;;;;17.32;100.00;97128.16;5096034;28;20226;-71
2022/09/15 07:26:19;;;;;;;2.70;1.70;;;;;;;17.35;100.00;97141.19;5111128;28;20269;-71
2022/09/15 07:28:48;;;;;;;2.80;1.60;;;;;;;17.37;100.00;97133.84;5111234;28;20692;-71
2022/09/15 07:31:16;;;;;;;1.67;1.20;;;;;;;17.38;100.00;97140.03;5110117;28;20651;-71
2022/09/15 07:33:43;;;;;;;2.17;1.57;;;;;;;17.44;100.00;97140.16;5105945;28;20311;-71
2022/09/15 07:36:10;;;;;;;1.80;1.60;;;;;;;17.47;100.00;97134.50;5088403;28;20222;-71
2022/09/15 07:38:40;;;;;;;2.50;1.40;;;;;;;17.57;100.00;97145.81;5110955;28;20582;-71
2022/09/15 07:41:11;;;;;;;2.47;1.50;;;;;;;17.73;100.00;97137.72;5110317;28;20226;-71
2022/09/15 07:43:38;;;;;;;1.30;1.17;;;;;;;17.79;100.00;97139.69;5107297;28;20531;-72
2022/09/15 07:46:05;;;;;;;1.43;1.30;;;;;;;17.92;100.00;97147.16;5087971;28;20277;-71
2022/09/15 07:48:32;;;;;;;1.27;1.17;;;;;;;18.06;100.00;97149.94;5110809;28;20274;-71
2022/09/15 07:50:59;;;;;;;1.70;1.23;;;;;;;18.19;100.00;97152.00;5110489;28;20385;-71
2022/09/15 07:53:28;;;;;;;1.60;1.30;;;;;;;18.34;100.00;97156.47;5106921;28;20229;-71
2022/09/15 07:55:55;;;;;;;4.07;1.10;;;;;;;18.42;100.00;97163.59;5110083;28;20256;-71
2022/09/15 07:58:24;;;;;;;2.07;1.20;;;;;;;18.43;100.00;97171.47;5105404;28;20282;-71
2022/09/15 08:00:50;;;;;;;1.63;1.20;;;;;;;18.41;100.00;97173.47;5104185;28;20548;-71
2022/09/15 08:03:17;;;;;;;1.30;1.20;;;;;;;18.35;100.00;97173.34;5106532;28;20226;-71
2022/09/15 08:05:44;;;;;;;1.13;0.90;;;;;;;18.35;100.00;97184.88;5109216;28;20223;-70
2022/09/15 08:08:11;;;;;;;1.60;1.40;;;;;;;18.35;100.00;97190.22;5110619;28;20252;-70
2022/09/15 08:10:39;;;;;;;1.17;1.03;;;;;;;18.38;100.00;97189.03;5113335;28;20305;-70
2022/09/15 08:13:05;;;;;;;1.50;1.13;;;;;;;18.36;100.00;97189.22;5112325;28;20221;-70
2022/09/15 08:15:35;;;;;;;1.77;1.30;;;;;;;18.28;100.00;97194.59;5112399;28;20275;-70
2022/09/15 08:18:02;;;;;;;2.30;1.10;;;;;;;18.23;100.00;97196.94;5114902;28;20445;-69
2022/09/15 08:20:30;;;;;;;1.13;1.03;;;;;;;18.19;100.00;97209.03;5114800;28;20226;-69
2022/09/15 08:22:57;;;;;;;1.23;1.00;;;;;;;18.17;100.00;97197.66;5105759;28;20222;-70
2022/09/15 08:25:23;;;;;;;1.57;1.00;;;;;;;18.11;100.00;97206.38;5110046;28;20581;-70
2022/09/15 08:27:50;;;;;;;1.10;0.90;;;;;;;17.97;100.00;97212.47;5114753;28;20310;-69
2022/09/15 08:30:17;;;;;;;3.13;1.10;;;;;;;17.88;100.00;97207.31;5114259;28;20222;-69
2022/09/15 08:32:45;;;;;;;1.17;1.00;;;;;;;17.84;100.00;97214.84;5111815;28;20230;-67
2022/09/15 08:35:13;;;;;;;1.20;1.10;;;;;;;17.85;100.00;97216.53;5110734;28;20261;-68
2022/09/15 08:37:40;;;;;;;1.63;0.83;;;;;;;17.90;100.00;97211.50;5092036;28;20226;-68
2022/09/15 08:40:09;;;;;;;1.60;1.10;;;;;;;17.90;100.00;97214.16;5114524;28;20261;-68
2022/09/15 08:42:36;;;;;;;1.20;0.90;;;;;;;17.99;100.00;97215.78;5113743;28;20668;-66
2022/09/15 08:45:08;;;;;;;1.77;0.90;;;;;;;18.01;100.00;97219.16;5110985;28;20308;-66
2022/09/15 08:47:38;;;;;;;1.10;1.00;;;;;;;18.02;100.00;97220.81;5092323;28;20248;-66
2022/09/15 08:50:14;;;;;;;1.33;0.97;;;;;;;18.01;100.00;97219.16;5114526;28;20255;-67
2022/09/15 08:52:44;;;;;;;1.53;1.00;;;;;;;18.07;100.00;97220.28;5111689;28;20280;-66
2022/09/15 08:55:15;;;;;;;1.27;0.90;;;;;;;18.10;100.00;97217.28;5112914;28;20223;-66
2022/09/15 08:57:42;;;;;;;1.60;0.90;;;;;;;18.11;100.00;97224.28;5115550;28;20294;-66
2022/09/15 09:00:14;;;;;;;1.20;1.00;;;;;;;18.14;100.00;97232.78;5115445;28;20791;-66
2022/09/15 09:03:04;;;;;;;1.00;0.70;;;;;;;18.18;100.00;97230.59;5112680;28;20279;-67
2022/09/15 09:05:47;;;;;;;0.87;0.80;;;;;;;18.25;100.00;97237.75;5094093;28;20222;-68
2022/09/15 09:08:52;;;;;;;1.30;0.87;;;;;;;18.31;100.00;97252.28;5115234;28;20594;-68
2022/09/15 09:11:30;;;;;;;1.40;0.70;;;;;;;18.26;100.00;97249.25;5113135;28;20222;-66
2022/09/15 09:14:04;;;;;;;1.17;0.63;;;;;;;17.91;100.00;97249.78;5107918;28;20579;-67
2022/09/15 09:16:47;;;;;;;0.43;0.40;;;;;;;17.75;100.00;97250.63;5111312;28;20260;-68
2022/09/15 09:19:30;;;;;;;0.40;0.40;;;;;;;17.72;100.00;97255.47;5112787;28;20265;-68
2022/09/15 09:22:05;;;;;;;0.60;0.60;;;;;;;17.68;100.00;97257.66;5113147;28;20221;-67
2022/09/15 09:24:37;;;;;;;0.50;0.50;;;;;;;17.69;100.00;97242.47;5111084;28;20632;-68
2022/09/15 09:27:05;;;;;;;1.00;0.60;;;;;;;17.73;100.00;97252.66;5113474;28;20252;-67
2022/09/15 09:29:36;;;;;;;0.50;0.50;;;;;;;17.76;100.00;97246.13;5114860;28;20635;-68
2022/09/15 09:32:04;;;;;;;0.60;0.50;;;;;;;17.70;100.00;97258.34;5114960;28;20579;-68
2022/09/15 09:34:38;;;;;;;1.97;0.50;;;;;;;17.74;100.00;97254.31;5111282;28;20230;-68
2022/09/15 09:37:11;;;;;;;1.47;0.70;;;;;;;17.69;100.00;97255.84;5114276;28;20636;-66
2022/09/15 09:39:38;;;;;;;0.70;0.70;;;;;;;17.59;100.00;97261.38;5114629;28;20310;-66
2022/09/15 09:42:06;;;;;;;1.37;0.80;;;;;;;17.49;100.00;97260.72;5114041;28;20230;-67
2022/09/15 09:44:34;;;;;;;2.20;0.60;;;;;;;17.44;100.00;97267.59;5109045;28;20222;-66
2022/09/15 09:47:02;;;;;;;1.37;0.90;;;;;;;17.31;100.00;97265.38;5113957;28;20369;-69
2022/09/15 09:49:33;;;;;;;1.20;0.80;;;;;;;17.29;100.00;97258.53;5114474;28;20264;-67
2022/09/15 09:52:02;;;;;;;1.70;0.60;;;;;;;17.12;100.00;97249.72;5113835;28;20248;-66
2022/09/15 09:54:31;;;;;;;1.03;0.70;;;;;;;16.97;100.00;97256.72;5110801;28;20310;-67
2022/09/15 09:57:22;;;;;;;1.13;0.80;;;;;;;16.85;100.00;97259.88;5091449;28;20229;-65
2022/09/15 09:59:50;;;;;;;0.70;0.70;;;;;;;16.81;100.00;97253.19;5114353;28;20499;-65
2022/09/15 10:02:19;;;;;;;1.60;1.00;;;;;;;16.72;100.00;97254.19;5110670;28;20223;-65
2022/09/15 10:04:48;;;;;;;0.80;0.80;;;;;;;16.64;100.00;97252.34;5113017;28;20222;-66
2022/09/15 10:07:16;;;;;;;0.90;0.80;;;;;;;16.58;100.00;97253.00;5114144;28;20581;-67
2022/09/15 10:09:57;;;;;;;1.30;1.00;;;;;;;16.42;100.00;97253.00;5112430;28;20673;-66
2022/09/15 10:12:28;;;;;;;1.50;1.37;;;;;;;16.22;100.00;97264.88;5106665;28;20420;-66
2022/09/15 10:14:57;;;;;;;1.60;1.50;;;;;;;16.13;100.00;97257.88;5092544;28;20614;-66
2022/09/15 10:17:27;;;;;;;2.73;2.13;;;;;;;16.02;100.00;97260.81;5113976;28;20260;-66
2022/09/15 10:19:56;;;;;;;2.27;1.80;;;;;;;15.94;100.00;97257.28;5112234;28;20697;-66
2022/09/15 10:22:28;;;;;;;2.17;1.97;;;;;;;15.85;100.00;97260.06;5110657;28;20269;-66
2022/09/15 10:24:56;;;;;;;2.87;2.37;;;;;;;15.74;100.00;97265.66;5113838;28;20228;-67
2022/09/15 10:27:29;;;;;;;3.33;2.30;;;;;;;15.75;100.00;97268.19;5113702;28;20313;-68
2022/09/15 10:29:59;;;;;;;2.67;2.47;;;;;;;15.62;100.00;97272.25;5111242;28;20227;-66
2022/09/15 10:32:28;;;;;;;3.43;2.60;;;;;;;15.57;100.00;97275.41;5111451;28;20231;-66
2022/09/15 10:35:17;;;;;;;3.03;2.73;;;;;;;15.44;100.00;97277.66;5113643;28;20638;-65
2022/09/15 10:38:01;;;;;;;4.97;3.27;;;;;;;15.35;100.00;97286.59;5106126;28;20224;-66
2022/09/15 10:40:37;;;;;;;3.43;3.10;;;;;;;15.16;100.00;97292.03;5112318;28;20224;-66
2022/09/15 10:43:21;;;;;;;4.97;4.27;;;;;;;15.08;100.00;97299.97;5113478;28;20222;-66
2022/09/15 10:45:49;;;;;;;4.73;4.20;;;;;;;15.06;100.00;97295.78;5111005;28;20636;-68
2022/09/15 10:48:52;;;;;;;4.93;4.13;;;;;;;15.01;100.00;97298.91;5110962;28;20248;-68
2022/09/15 10:51:33;;;;;;;6.27;4.93;;;;;;;14.94;100.00;97303.19;5113215;28;20285;-68
2022/09/15 10:54:17;;;;;;;5.67;4.30;;;;;;;14.92;100.00;97299.81;5105365;28;20317;-66
2022/09/15 10:56:48;;;;;;;5.00;4.33;;;;;;;14.91;100.00;97294.66;5094315;28;20266;-66
2022/09/15 10:59:28;;;;;;;7.97;4.97;;;;;;;14.85;100.00;97298.75;5112981;28;20223;-67
2022/09/15 11:02:13;;;;;;;7.23;4.73;;;;;;;14.81;100.00;97308.06;5103404;28;20282;-66
2022/09/15 11:05:00;;;;;;;6.10;4.20;;;;;;;14.73;100.00;97304.47;5094278;28;20235;-65
2022/09/15 11:07:33;;;;;;;5.03;4.57;;;;;;;14.71;100.00;97306.44;5111825;28;20280;-67
2022/09/15 11:10:08;;;;;;;6.97;4.53;;;;;;;14.70;100.00;97310.09;5109613;28;20227;-65
2022/09/15 11:12:51;;;;;;;10.17;5.33;;;;;;;14.66;100.00;97311.41;5112872;28;20233;-65
2022/09/15 11:15:32;;;;;;;8.43;5.60;;;;;;;14.73;100.00;97312.44;5112321;28;20228;-65
2022/09/15 11:18:19;;;;;;;8.43;5.83;;;;;;;14.91;100.00;97321.28;5110315;28;20312;-65
2022/09/15 11:21:12;;;;;;;6.83;5.67;;;;;;;14.94;100.00;97334.25;5110262;28;20267;-65
2022/09/15 11:23:45;;;;;;;9.93;6.50;;;;;;;14.92;100.00;97336.25;5093494;28;20564;-66
2022/09/15 11:26:15;;;;;;;6.20;4.93;;;;;;;14.96;100.00;97327.00;5112517;28;20228;-66
2022/09/15 11:28:49;;;;;;;7.03;5.00;;;;;;;14.98;100.00;97330.31;5110582;28;20284;-66
2022/09/15 11:31:21;;;;;;;6.10;4.20;;;;;;;14.96;100.00;97333.13;5111129;28;20284;-66
2022/09/15 11:33:53;;;;;;;5.17;4.67;;;;;;;14.97;100.00;97328.66;5109499;28;20300;-65
2022/09/15 11:36:23;;;;;;;6.00;4.87;;;;;;;15.07;100.00;97345.34;5112457;28;20255;-66
2022/09/15 11:38:56;;;;;;;5.60;4.60;;;;;;;14.97;100.00;97350.75;5112388;28;20575;-65
2022/09/15 11:41:34;;;;;;;4.30;3.73;;;;;;;14.92;100.00;97352.22;5109479;28;20232;-66